sensor_id;sensor_type;location;lat;lon;timestamp;P1;durP1;ratioP1;P2;durP2;ratioP2
23519;SDS011;11936;50.820;4.336;2022-12-18T00:00:39;22.40;;;13.68;;
23519;SDS011;11936;50.820;4.336;2022-12-18T00:03:08;20.10;;;12.40;;
23519;SDS011;11936;50.820;4.336;2022-12-18T00:05:34;23.50;;;13.13;;
23519;SDS011;11936;50.820;4.336;2022-12-18T00:08:00;20.42;;;11.73;;
23519;SDS011;11936;50.820;4.336;2022-12-18T00:10:26;24.17;;;12.88;;
23519;SDS011;11936;50.820;4.336;2022-12-18T00:12:53;22.95;;;13.07;;
23519;SDS011;11936;50.820;4.336;2022-12-18T00:15:18;24.05;;;13.18;;
23519;SDS011;11936;50.820;4.336;2022-12-18T00:17:44;20.15;;;12.43;;
23519;SDS011;11936;50.820;4.336;2022-12-18T00:20:09;22.95;;;13.52;;
23519;SDS011;11936;50.820;4.336;2022-12-18T00:22:35;25.70;;;13.05;;
23519;SDS011;11936;50.820;4.336;2022-12-18T00:25:01;28.65;;;14.63;;
23519;SDS011;11936;50.820;4.336;2022-12-18T00:27:27;27.35;;;15.23;;
23519;SDS011;11936;50.820;4.336;2022-12-18T00:29:52;23.45;;;14.30;;
23519;SDS011;11936;50.820;4.336;2022-12-18T00:32:18;25.38;;;14.65;;
23519;SDS011;11936;50.820;4.336;2022-12-18T00:34:43;29.33;;;15.23;;
23519;SDS011;11936;50.820;4.336;2022-12-18T00:37:09;26.20;;;14.27;;
23519;SDS011;11936;50.820;4.336;2022-12-18T00:39:35;23.25;;;14.18;;
23519;SDS011;11936;50.820;4.336;2022-12-18T00:42:00;22.63;;;13.45;;
23519;SDS011;11936;50.820;4.336;2022-12-18T00:44:44;26.83;;;14.60;;
23519;SDS011;11936;50.820;4.336;2022-12-18T00:47:10;24.70;;;13.07;;
23519;SDS011;11936;50.820;4.336;2022-12-18T00:49:35;22.98;;;13.13;;
23519;SDS011;11936;50.820;4.336;2022-12-18T00:52:01;20.48;;;12.48;;
23519;SDS011;11936;50.820;4.336;2022-12-18T00:54:27;21.92;;;13.32;;
23519;SDS011;11936;50.820;4.336;2022-12-18T00:56:52;21.52;;;12.38;;
23519;SDS011;11936;50.820;4.336;2022-12-18T00:59:20;21.02;;;12.90;;
23519;SDS011;11936;50.820;4.336;2022-12-18T01:01:45;22.10;;;13.30;;
23519;SDS011;11936;50.820;4.336;2022-12-18T01:04:11;20.52;;;11.38;;
23519;SDS011;11936;50.820;4.336;2022-12-18T01:06:37;22.85;;;12.65;;
23519;SDS011;11936;50.820;4.336;2022-12-18T01:09:03;23.20;;;13.00;;
23519;SDS011;11936;50.820;4.336;2022-12-18T01:11:28;20.50;;;11.75;;
23519;SDS011;11936;50.820;4.336;2022-12-18T01:13:54;17.88;;;11.75;;
23519;SDS011;11936;50.820;4.336;2022-12-18T01:16:20;18.52;;;11.55;;
23519;SDS011;11936;50.820;4.336;2022-12-18T01:18:46;16.65;;;10.15;;
23519;SDS011;11936;50.820;4.336;2022-12-18T01:21:14;17.90;;;10.60;;
23519;SDS011;11936;50.820;4.336;2022-12-18T01:26:07;16.13;;;9.75;;
23519;SDS011;11936;50.820;4.336;2022-12-18T01:28:34;19.42;;;10.20;;
23519;SDS011;11936;50.820;4.336;2022-12-18T01:31:13;14.95;;;8.73;;
23519;SDS011;11936;50.820;4.336;2022-12-18T01:33:41;16.08;;;9.45;;
23519;SDS011;11936;50.820;4.336;2022-12-18T01:36:07;16.83;;;9.73;;
23519;SDS011;11936;50.820;4.336;2022-12-18T01:38:33;13.63;;;9.05;;
23519;SDS011;11936;50.820;4.336;2022-12-18T01:41:00;15.52;;;9.23;;
23519;SDS011;11936;50.820;4.336;2022-12-18T01:43:45;15.95;;;8.75;;
23519;SDS011;11936;50.820;4.336;2022-12-18T01:46:20;15.63;;;8.80;;
23519;SDS011;11936;50.820;4.336;2022-12-18T01:48:47;15.20;;;8.10;;
23519;SDS011;11936;50.820;4.336;2022-12-18T01:51:15;12.85;;;7.88;;
23519;SDS011;11936;50.820;4.336;2022-12-18T01:53:41;13.88;;;7.88;;
23519;SDS011;11936;50.820;4.336;2022-12-18T01:56:08;13.68;;;7.47;;
23519;SDS011;11936;50.820;4.336;2022-12-18T01:58:45;11.55;;;7.93;;
23519;SDS011;11936;50.820;4.336;2022-12-18T02:01:24;12.57;;;7.90;;
23519;SDS011;11936;50.820;4.336;2022-12-18T02:03:50;13.63;;;7.53;;
23519;SDS011;11936;50.820;4.336;2022-12-18T02:09:15;14.55;;;8.55;;
23519;SDS011;11936;50.820;4.336;2022-12-18T02:11:57;12.32;;;7.30;;
23519;SDS011;11936;50.820;4.336;2022-12-18T02:14:35;12.00;;;7.75;;
23519;SDS011;11936;50.820;4.336;2022-12-18T02:22:29;12.80;;;7.90;;
23519;SDS011;11936;50.820;4.336;2022-12-18T02:27:44;13.43;;;7.68;;
23519;SDS011;11936;50.820;4.336;2022-12-18T02:32:41;13.10;;;8.30;;
23519;SDS011;11936;50.820;4.336;2022-12-18T02:35:16;12.80;;;7.65;;
23519;SDS011;11936;50.820;4.336;2022-12-18T02:37:46;15.18;;;8.52;;
23519;SDS011;11936;50.820;4.336;2022-12-18T02:40:12;11.75;;;7.10;;
23519;SDS011;11936;50.820;4.336;2022-12-18T02:42:40;14.55;;;7.63;;
23519;SDS011;11936;50.820;4.336;2022-12-18T02:45:06;15.98;;;8.23;;
23519;SDS011;11936;50.820;4.336;2022-12-18T02:47:32;14.23;;;8.07;;
23519;SDS011;11936;50.820;4.336;2022-12-18T02:50:17;12.32;;;7.28;;
23519;SDS011;11936;50.820;4.336;2022-12-18T02:56:08;15.73;;;7.40;;
23519;SDS011;11936;50.820;4.336;2022-12-18T03:03:56;12.88;;;7.05;;
23519;SDS011;11936;50.820;4.336;2022-12-18T03:06:33;16.85;;;8.65;;
23519;SDS011;11936;50.820;4.336;2022-12-18T03:11:40;14.20;;;8.35;;
23519;SDS011;11936;50.820;4.336;2022-12-18T03:16:57;12.50;;;8.35;;
23519;SDS011;11936;50.820;4.336;2022-12-18T03:19:26;14.52;;;8.52;;
23519;SDS011;11936;50.820;4.336;2022-12-18T03:21:55;16.52;;;9.00;;
23519;SDS011;11936;50.820;4.336;2022-12-18T03:24:22;15.85;;;8.95;;
23519;SDS011;11936;50.820;4.336;2022-12-18T03:29:22;15.32;;;8.15;;
23519;SDS011;11936;50.820;4.336;2022-12-18T03:31:53;15.73;;;8.60;;
23519;SDS011;11936;50.820;4.336;2022-12-18T03:34:23;15.13;;;8.82;;
23519;SDS011;11936;50.820;4.336;2022-12-18T03:37:01;14.07;;;7.35;;
23519;SDS011;11936;50.820;4.336;2022-12-18T03:39:27;15.55;;;8.60;;
23519;SDS011;11936;50.820;4.336;2022-12-18T03:41:58;11.75;;;7.85;;
23519;SDS011;11936;50.820;4.336;2022-12-18T03:53:32;14.02;;;8.38;;
23519;SDS011;11936;50.820;4.336;2022-12-18T03:56:18;13.73;;;8.00;;
23519;SDS011;11936;50.820;4.336;2022-12-18T03:58:45;16.10;;;8.80;;
23519;SDS011;11936;50.820;4.336;2022-12-18T04:01:13;18.52;;;8.10;;
23519;SDS011;11936;50.820;4.336;2022-12-18T04:03:41;12.90;;;7.50;;
23519;SDS011;11936;50.820;4.336;2022-12-18T04:06:08;13.38;;;7.07;;
23519;SDS011;11936;50.820;4.336;2022-12-18T04:08:36;12.33;;;6.93;;
23519;SDS011;11936;50.820;4.336;2022-12-18T04:11:02;11.30;;;7.20;;
23519;SDS011;11936;50.820;4.336;2022-12-18T04:13:28;12.02;;;7.20;;
23519;SDS011;11936;50.820;4.336;2022-12-18T04:15:57;14.95;;;8.30;;
23519;SDS011;11936;50.820;4.336;2022-12-18T04:18:22;11.77;;;7.60;;
23519;SDS011;11936;50.820;4.336;2022-12-18T04:20:48;13.90;;;7.72;;
23519;SDS011;11936;50.820;4.336;2022-12-18T04:23:14;12.05;;;7.22;;
23519;SDS011;11936;50.820;4.336;2022-12-18T04:25:39;14.02;;;6.43;;
23519;SDS011;11936;50.820;4.336;2022-12-18T04:28:05;13.63;;;7.70;;
23519;SDS011;11936;50.820;4.336;2022-12-18T04:30:31;12.60;;;7.28;;
23519;SDS011;11936;50.820;4.336;2022-12-18T04:32:56;12.27;;;7.50;;
23519;SDS011;11936;50.820;4.336;2022-12-18T04:35:22;11.98;;;6.15;;
23519;SDS011;11936;50.820;4.336;2022-12-18T04:37:48;10.70;;;6.88;;
23519;SDS011;11936;50.820;4.336;2022-12-18T04:40:13;12.02;;;6.25;;
23519;SDS011;11936;50.820;4.336;2022-12-18T04:42:39;12.35;;;7.05;;
23519;SDS011;11936;50.820;4.336;2022-12-18T04:45:05;12.57;;;7.22;;
23519;SDS011;11936;50.820;4.336;2022-12-18T04:47:32;10.25;;;6.82;;
23519;SDS011;11936;50.820;4.336;2022-12-18T04:49:57;11.82;;;6.93;;
23519;SDS011;11936;50.820;4.336;2022-12-18T04:52:23;9.98;;;7.38;;
23519;SDS011;11936;50.820;4.336;2022-12-18T04:54:48;12.75;;;7.20;;
23519;SDS011;11936;50.820;4.336;2022-12-18T04:57:14;11.43;;;6.75;;
23519;SDS011;11936;50.820;4.336;2022-12-18T04:59:40;9.88;;;6.18;;
23519;SDS011;11936;50.820;4.336;2022-12-18T05:02:05;13.15;;;7.32;;
23519;SDS011;11936;50.820;4.336;2022-12-18T05:04:31;13.45;;;7.18;;
23519;SDS011;11936;50.820;4.336;2022-12-18T05:06:57;11.80;;;7.18;;
23519;SDS011;11936;50.820;4.336;2022-12-18T05:09:22;16.02;;;7.10;;
23519;SDS011;11936;50.820;4.336;2022-12-18T05:11:48;12.65;;;7.00;;
23519;SDS011;11936;50.820;4.336;2022-12-18T05:14:14;12.57;;;7.35;;
23519;SDS011;11936;50.820;4.336;2022-12-18T05:16:39;12.25;;;7.50;;
23519;SDS011;11936;50.820;4.336;2022-12-18T05:19:05;13.50;;;7.05;;
23519;SDS011;11936;50.820;4.336;2022-12-18T05:21:30;11.30;;;7.38;;
23519;SDS011;11936;50.820;4.336;2022-12-18T05:23:56;13.38;;;7.25;;
23519;SDS011;11936;50.820;4.336;2022-12-18T05:26:21;13.63;;;6.88;;
23519;SDS011;11936;50.820;4.336;2022-12-18T05:28:47;12.15;;;6.80;;
23519;SDS011;11936;50.820;4.336;2022-12-18T05:31:13;12.93;;;7.20;;
23519;SDS011;11936;50.820;4.336;2022-12-18T05:33:39;11.60;;;7.07;;
23519;SDS011;11936;50.820;4.336;2022-12-18T05:36:06;16.23;;;8.48;;
23519;SDS011;11936;50.820;4.336;2022-12-18T05:38:33;12.02;;;7.20;;
23519;SDS011;11936;50.820;4.336;2022-12-18T05:41:01;14.20;;;6.85;;
23519;SDS011;11936;50.820;4.336;2022-12-18T05:43:27;11.43;;;7.53;;
23519;SDS011;11936;50.820;4.336;2022-12-18T05:45:53;12.00;;;7.28;;
23519;SDS011;11936;50.820;4.336;2022-12-18T05:48:19;14.00;;;7.38;;
23519;SDS011;11936;50.820;4.336;2022-12-18T05:50:46;13.30;;;7.72;;
23519;SDS011;11936;50.820;4.336;2022-12-18T05:53:13;12.98;;;7.38;;
23519;SDS011;11936;50.820;4.336;2022-12-18T05:55:42;11.10;;;6.50;;
23519;SDS011;11936;50.820;4.336;2022-12-18T05:58:09;10.27;;;6.45;;
23519;SDS011;11936;50.820;4.336;2022-12-18T06:00:36;10.07;;;6.40;;
23519;SDS011;11936;50.820;4.336;2022-12-18T06:03:06;11.60;;;6.47;;
23519;SDS011;11936;50.820;4.336;2022-12-18T06:05:37;10.63;;;5.57;;
23519;SDS011;11936;50.820;4.336;2022-12-18T06:08:06;9.05;;;6.00;;
23519;SDS011;11936;50.820;4.336;2022-12-18T06:10:32;8.63;;;5.40;;
23519;SDS011;11936;50.820;4.336;2022-12-18T06:12:58;11.68;;;6.55;;
23519;SDS011;11936;50.820;4.336;2022-12-18T06:15:24;9.27;;;6.28;;
23519;SDS011;11936;50.820;4.336;2022-12-18T06:17:49;9.07;;;5.95;;
23519;SDS011;11936;50.820;4.336;2022-12-18T06:20:15;8.98;;;5.80;;
23519;SDS011;11936;50.820;4.336;2022-12-18T06:22:41;10.30;;;5.93;;
23519;SDS011;11936;50.820;4.336;2022-12-18T06:25:06;7.40;;;5.03;;
23519;SDS011;11936;50.820;4.336;2022-12-18T06:27:32;8.50;;;5.63;;
23519;SDS011;11936;50.820;4.336;2022-12-18T06:30:01;10.18;;;5.65;;
23519;SDS011;11936;50.820;4.336;2022-12-18T06:32:26;10.93;;;6.78;;
23519;SDS011;11936;50.820;4.336;2022-12-18T06:34:52;14.95;;;6.30;;
23519;SDS011;11936;50.820;4.336;2022-12-18T06:37:20;10.93;;;6.15;;
23519;SDS011;11936;50.820;4.336;2022-12-18T06:39:46;12.30;;;6.40;;
23519;SDS011;11936;50.820;4.336;2022-12-18T06:42:11;10.60;;;6.70;;
23519;SDS011;11936;50.820;4.336;2022-12-18T06:44:37;7.95;;;5.68;;
23519;SDS011;11936;50.820;4.336;2022-12-18T06:47:02;9.93;;;6.15;;
23519;SDS011;11936;50.820;4.336;2022-12-18T06:49:31;10.30;;;5.82;;
23519;SDS011;11936;50.820;4.336;2022-12-18T06:54:22;8.23;;;5.60;;
23519;SDS011;11936;50.820;4.336;2022-12-18T06:56:48;7.97;;;5.50;;
23519;SDS011;11936;50.820;4.336;2022-12-18T06:59:13;8.80;;;5.50;;
23519;SDS011;11936;50.820;4.336;2022-12-18T07:01:39;11.43;;;6.03;;
23519;SDS011;11936;50.820;4.336;2022-12-18T07:04:05;11.40;;;5.82;;
23519;SDS011;11936;50.820;4.336;2022-12-18T07:06:31;11.80;;;6.03;;
23519;SDS011;11936;50.820;4.336;2022-12-18T07:08:56;8.60;;;6.03;;
23519;SDS011;11936;50.820;4.336;2022-12-18T07:11:22;9.48;;;6.43;;
23519;SDS011;11936;50.820;4.336;2022-12-18T07:13:49;12.75;;;5.97;;
23519;SDS011;11936;50.820;4.336;2022-12-18T07:16:16;11.75;;;6.00;;
23519;SDS011;11936;50.820;4.336;2022-12-18T07:18:43;11.73;;;6.38;;
23519;SDS011;11936;50.820;4.336;2022-12-18T07:21:10;8.93;;;5.80;;
23519;SDS011;11936;50.820;4.336;2022-12-18T07:23:37;9.85;;;6.35;;
23519;SDS011;11936;50.820;4.336;2022-12-18T07:26:04;9.70;;;6.38;;
23519;SDS011;11936;50.820;4.336;2022-12-18T07:28:35;10.98;;;5.90;;
23519;SDS011;11936;50.820;4.336;2022-12-18T07:31:03;10.68;;;6.38;;
23519;SDS011;11936;50.820;4.336;2022-12-18T07:33:29;9.20;;;6.22;;
23519;SDS011;11936;50.820;4.336;2022-12-18T07:35:55;10.57;;;6.10;;
23519;SDS011;11936;50.820;4.336;2022-12-18T07:38:20;11.65;;;6.05;;
23519;SDS011;11936;50.820;4.336;2022-12-18T07:40:46;12.68;;;7.22;;
23519;SDS011;11936;50.820;4.336;2022-12-18T07:43:11;15.05;;;7.38;;
23519;SDS011;11936;50.820;4.336;2022-12-18T07:45:37;9.38;;;5.90;;
23519;SDS011;11936;50.820;4.336;2022-12-18T07:48:03;12.55;;;7.07;;
23519;SDS011;11936;50.820;4.336;2022-12-18T07:50:32;11.40;;;6.38;;
23519;SDS011;11936;50.820;4.336;2022-12-18T07:52:57;10.85;;;6.97;;
23519;SDS011;11936;50.820;4.336;2022-12-18T07:55:23;9.60;;;6.20;;
23519;SDS011;11936;50.820;4.336;2022-12-18T07:57:48;9.77;;;6.25;;
23519;SDS011;11936;50.820;4.336;2022-12-18T08:00:14;10.40;;;6.30;;
23519;SDS011;11936;50.820;4.336;2022-12-18T08:02:40;11.15;;;6.70;;
23519;SDS011;11936;50.820;4.336;2022-12-18T08:05:05;11.07;;;6.07;;
23519;SDS011;11936;50.820;4.336;2022-12-18T08:07:31;10.93;;;6.72;;
23519;SDS011;11936;50.820;4.336;2022-12-18T08:09:56;10.82;;;7.25;;
23519;SDS011;11936;50.820;4.336;2022-12-18T08:12:22;11.02;;;6.65;;
23519;SDS011;11936;50.820;4.336;2022-12-18T08:14:48;11.48;;;6.78;;
23519;SDS011;11936;50.820;4.336;2022-12-18T08:17:13;13.00;;;7.78;;
23519;SDS011;11936;50.820;4.336;2022-12-18T08:19:39;10.38;;;6.40;;
23519;SDS011;11936;50.820;4.336;2022-12-18T08:22:04;8.27;;;6.30;;
23519;SDS011;11936;50.820;4.336;2022-12-18T08:24:30;13.40;;;6.70;;
23519;SDS011;11936;50.820;4.336;2022-12-18T08:26:55;11.68;;;6.88;;
23519;SDS011;11936;50.820;4.336;2022-12-18T08:29:22;12.30;;;7.25;;
23519;SDS011;11936;50.820;4.336;2022-12-18T08:31:48;14.50;;;7.35;;
23519;SDS011;11936;50.820;4.336;2022-12-18T08:34:13;11.25;;;6.57;;
23519;SDS011;11936;50.820;4.336;2022-12-18T08:36:39;12.38;;;7.32;;
23519;SDS011;11936;50.820;4.336;2022-12-18T08:39:05;9.57;;;6.18;;
23519;SDS011;11936;50.820;4.336;2022-12-18T08:41:30;10.50;;;6.70;;
23519;SDS011;11936;50.820;4.336;2022-12-18T08:43:56;11.30;;;7.35;;
23519;SDS011;11936;50.820;4.336;2022-12-18T08:46:41;9.40;;;6.00;;
23519;SDS011;11936;50.820;4.336;2022-12-18T08:49:08;11.40;;;7.20;;
23519;SDS011;11936;50.820;4.336;2022-12-18T08:51:34;10.98;;;7.13;;
23519;SDS011;11936;50.820;4.336;2022-12-18T08:54:01;13.95;;;7.57;;
23519;SDS011;11936;50.820;4.336;2022-12-18T08:56:27;13.70;;;7.53;;
23519;SDS011;11936;50.820;4.336;2022-12-18T08:58:53;15.68;;;7.03;;
23519;SDS011;11936;50.820;4.336;2022-12-18T09:01:19;12.57;;;7.72;;
23519;SDS011;11936;50.820;4.336;2022-12-18T09:03:45;12.35;;;7.47;;
23519;SDS011;11936;50.820;4.336;2022-12-18T09:06:13;11.23;;;7.13;;
23519;SDS011;11936;50.820;4.336;2022-12-18T09:08:40;11.25;;;7.80;;
23519;SDS011;11936;50.820;4.336;2022-12-18T09:11:10;13.15;;;7.78;;
23519;SDS011;11936;50.820;4.336;2022-12-18T09:13:47;13.98;;;7.97;;
23519;SDS011;11936;50.820;4.336;2022-12-18T09:16:14;11.45;;;7.45;;
23519;SDS011;11936;50.820;4.336;2022-12-18T09:18:40;12.18;;;7.50;;
23519;SDS011;11936;50.820;4.336;2022-12-18T09:21:12;14.20;;;8.10;;
23519;SDS011;11936;50.820;4.336;2022-12-18T09:23:40;12.43;;;7.90;;
23519;SDS011;11936;50.820;4.336;2022-12-18T09:26:07;12.82;;;8.55;;
23519;SDS011;11936;50.820;4.336;2022-12-18T09:28:33;13.43;;;7.68;;
23519;SDS011;11936;50.820;4.336;2022-12-18T09:30:59;15.30;;;8.35;;
23519;SDS011;11936;50.820;4.336;2022-12-18T09:33:30;13.98;;;8.55;;
23519;SDS011;11936;50.820;4.336;2022-12-18T09:35:55;19.27;;;8.18;;
23519;SDS011;11936;50.820;4.336;2022-12-18T09:38:21;16.50;;;8.48;;
23519;SDS011;11936;50.820;4.336;2022-12-18T09:40:49;11.98;;;8.40;;
23519;SDS011;11936;50.820;4.336;2022-12-18T09:43:22;15.90;;;9.73;;
23519;SDS011;11936;50.820;4.336;2022-12-18T09:46:01;17.13;;;9.13;;
23519;SDS011;11936;50.820;4.336;2022-12-18T09:48:31;12.82;;;7.78;;
23519;SDS011;11936;50.820;4.336;2022-12-18T09:51:01;14.98;;;8.38;;
23519;SDS011;11936;50.820;4.336;2022-12-18T09:53:32;16.10;;;9.20;;
23519;SDS011;11936;50.820;4.336;2022-12-18T09:56:01;17.85;;;9.60;;
23519;SDS011;11936;50.820;4.336;2022-12-18T10:01:06;17.42;;;8.80;;
23519;SDS011;11936;50.820;4.336;2022-12-18T10:03:45;12.25;;;8.45;;
23519;SDS011;11936;50.820;4.336;2022-12-18T10:06:12;14.60;;;8.85;;
23519;SDS011;11936;50.820;4.336;2022-12-18T10:17:17;22.63;;;8.90;;
23519;SDS011;11936;50.820;4.336;2022-12-18T10:27:39;17.33;;;9.57;;
23519;SDS011;11936;50.820;4.336;2022-12-18T10:30:12;15.75;;;9.38;;
23519;SDS011;11936;50.820;4.336;2022-12-18T10:32:42;16.38;;;10.38;;
23519;SDS011;11936;50.820;4.336;2022-12-18T10:35:11;17.00;;;9.95;;
23519;SDS011;11936;50.820;4.336;2022-12-18T10:38:00;11.27;;;8.20;;
23519;SDS011;11936;50.820;4.336;2022-12-18T10:40:27;14.70;;;9.40;;
23519;SDS011;11936;50.820;4.336;2022-12-18T10:43:03;17.05;;;9.57;;
23519;SDS011;11936;50.820;4.336;2022-12-18T10:45:30;17.95;;;9.73;;
23519;SDS011;11936;50.820;4.336;2022-12-18T10:47:56;19.20;;;11.13;;
23519;SDS011;11936;50.820;4.336;2022-12-18T10:50:27;16.27;;;9.88;;
23519;SDS011;11936;50.820;4.336;2022-12-18T10:52:57;18.85;;;11.55;;
23519;SDS011;11936;50.820;4.336;2022-12-18T10:55:27;18.65;;;11.48;;
23519;SDS011;11936;50.820;4.336;2022-12-18T10:58:13;17.98;;;10.65;;
23519;SDS011;11936;50.820;4.336;2022-12-18T11:00:42;17.70;;;10.25;;
23519;SDS011;11936;50.820;4.336;2022-12-18T11:06:04;17.55;;;10.63;;
23519;SDS011;11936;50.820;4.336;2022-12-18T11:08:31;16.30;;;10.70;;
23519;SDS011;11936;50.820;4.336;2022-12-18T11:10:57;19.20;;;11.63;;
23519;SDS011;11936;50.820;4.336;2022-12-18T11:13:24;19.75;;;10.85;;
23519;SDS011;11936;50.820;4.336;2022-12-18T11:15:52;19.10;;;10.82;;
23519;SDS011;11936;50.820;4.336;2022-12-18T11:18:39;19.85;;;11.35;;
23519;SDS011;11936;50.820;4.336;2022-12-18T11:21:07;17.52;;;11.27;;
23519;SDS011;11936;50.820;4.336;2022-12-18T11:23:34;15.23;;;10.35;;
23519;SDS011;11936;50.820;4.336;2022-12-18T11:26:03;19.42;;;11.00;;
23519;SDS011;11936;50.820;4.336;2022-12-18T11:33:56;15.20;;;10.25;;
23519;SDS011;11936;50.820;4.336;2022-12-18T11:36:23;20.85;;;10.65;;
23519;SDS011;11936;50.820;4.336;2022-12-18T11:38:53;20.60;;;11.90;;
23519;SDS011;11936;50.820;4.336;2022-12-18T11:41:23;17.37;;;10.77;;
23519;SDS011;11936;50.820;4.336;2022-12-18T11:44:57;16.77;;;9.98;;
23519;SDS011;11936;50.820;4.336;2022-12-18T11:50:16;19.60;;;11.25;;
23519;SDS011;11936;50.820;4.336;2022-12-18T11:52:48;19.65;;;10.82;;
23519;SDS011;11936;50.820;4.336;2022-12-18T11:55:19;21.45;;;11.40;;
23519;SDS011;11936;50.820;4.336;2022-12-18T11:58:19;23.10;;;10.65;;
23519;SDS011;11936;50.820;4.336;2022-12-18T12:09:21;15.93;;;10.93;;
23519;SDS011;11936;50.820;4.336;2022-12-18T12:12:03;17.30;;;10.63;;
23519;SDS011;11936;50.820;4.336;2022-12-18T12:14:39;21.40;;;11.93;;
23519;SDS011;11936;50.820;4.336;2022-12-18T12:17:15;19.95;;;11.48;;
23519;SDS011;11936;50.820;4.336;2022-12-18T12:20:22;16.65;;;10.77;;
23519;SDS011;11936;50.820;4.336;2022-12-18T12:22:52;25.00;;;12.80;;
23519;SDS011;11936;50.820;4.336;2022-12-18T12:28:29;19.00;;;11.75;;
23519;SDS011;11936;50.820;4.336;2022-12-18T12:34:01;19.30;;;11.27;;
23519;SDS011;11936;50.820;4.336;2022-12-18T12:39:19;20.95;;;11.60;;
23519;SDS011;11936;50.820;4.336;2022-12-18T12:41:47;19.30;;;11.55;;
23519;SDS011;11936;50.820;4.336;2022-12-18T12:44:33;22.05;;;12.13;;
23519;SDS011;11936;50.820;4.336;2022-12-18T12:47:07;22.17;;;12.18;;
23519;SDS011;11936;50.820;4.336;2022-12-18T12:49:41;19.05;;;11.48;;
23519;SDS011;11936;50.820;4.336;2022-12-18T12:52:13;20.90;;;12.27;;
23519;SDS011;11936;50.820;4.336;2022-12-18T12:54:43;22.23;;;10.82;;
23519;SDS011;11936;50.820;4.336;2022-12-18T13:07:41;22.90;;;13.05;;
23519;SDS011;11936;50.820;4.336;2022-12-18T13:15:22;22.38;;;13.30;;
23519;SDS011;11936;50.820;4.336;2022-12-18T13:23:00;21.98;;;13.82;;
23519;SDS011;11936;50.820;4.336;2022-12-18T13:25:32;32.50;;;15.20;;
23519;SDS011;11936;50.820;4.336;2022-12-18T13:28:06;29.20;;;14.43;;
23519;SDS011;11936;50.820;4.336;2022-12-18T13:41:01;28.55;;;14.82;;
23519;SDS011;11936;50.820;4.336;2022-12-18T13:43:43;25.05;;;15.05;;
23519;SDS011;11936;50.820;4.336;2022-12-18T13:46:18;28.13;;;16.30;;
23519;SDS011;11936;50.820;4.336;2022-12-18T13:51:19;27.00;;;15.57;;
23519;SDS011;11936;50.820;4.336;2022-12-18T13:53:48;31.15;;;16.50;;
23519;SDS011;11936;50.820;4.336;2022-12-18T13:56:42;26.40;;;15.23;;
23519;SDS011;11936;50.820;4.336;2022-12-18T13:59:13;30.98;;;15.80;;
23519;SDS011;11936;50.820;4.336;2022-12-18T14:01:45;30.92;;;15.80;;
23519;SDS011;11936;50.820;4.336;2022-12-18T14:06:46;31.40;;;16.52;;
23519;SDS011;11936;50.820;4.336;2022-12-18T14:09:15;28.73;;;16.58;;
23519;SDS011;11936;50.820;4.336;2022-12-18T14:11:50;29.10;;;17.33;;
23519;SDS011;11936;50.820;4.336;2022-12-18T14:14:17;29.15;;;17.80;;
23519;SDS011;11936;50.820;4.336;2022-12-18T14:16:45;30.95;;;16.88;;
23519;SDS011;11936;50.820;4.336;2022-12-18T14:19:15;29.85;;;17.58;;
23519;SDS011;11936;50.820;4.336;2022-12-18T14:21:49;34.97;;;17.75;;
23519;SDS011;11936;50.820;4.336;2022-12-18T14:24:19;30.65;;;17.27;;
23519;SDS011;11936;50.820;4.336;2022-12-18T14:26:47;29.63;;;17.30;;
23519;SDS011;11936;50.820;4.336;2022-12-18T14:29:27;32.30;;;19.10;;
23519;SDS011;11936;50.820;4.336;2022-12-18T14:32:14;29.38;;;16.38;;
23519;SDS011;11936;50.820;4.336;2022-12-18T14:34:44;34.88;;;19.05;;
23519;SDS011;11936;50.820;4.336;2022-12-18T14:37:12;32.53;;;18.05;;
23519;SDS011;11936;50.820;4.336;2022-12-18T14:39:39;32.60;;;16.97;;
23519;SDS011;11936;50.820;4.336;2022-12-18T14:42:05;35.03;;;17.73;;
23519;SDS011;11936;50.820;4.336;2022-12-18T14:44:31;35.47;;;18.85;;
23519;SDS011;11936;50.820;4.336;2022-12-18T14:46:56;31.63;;;18.13;;
23519;SDS011;11936;50.820;4.336;2022-12-18T14:52:01;34.75;;;17.60;;
23519;SDS011;11936;50.820;4.336;2022-12-18T14:54:31;35.45;;;18.42;;
23519;SDS011;11936;50.820;4.336;2022-12-18T14:59:29;28.75;;;17.67;;
23519;SDS011;11936;50.820;4.336;2022-12-18T15:04:36;29.48;;;16.75;;
23519;SDS011;11936;50.820;4.336;2022-12-18T15:07:19;34.78;;;18.05;;
23519;SDS011;11936;50.820;4.336;2022-12-18T15:10:32;35.72;;;18.73;;
23519;SDS011;11936;50.820;4.336;2022-12-18T15:12:36;33.97;;;19.17;;
23519;SDS011;11936;50.820;4.336;2022-12-18T15:15:05;33.60;;;18.77;;
23519;SDS011;11936;50.820;4.336;2022-12-18T15:20:56;30.33;;;16.83;;
23519;SDS011;11936;50.820;4.336;2022-12-18T15:23:25;39.15;;;18.25;;
23519;SDS011;11936;50.820;4.336;2022-12-18T15:25:59;30.90;;;17.75;;
23519;SDS011;11936;50.820;4.336;2022-12-18T15:31:02;32.17;;;18.50;;
23519;SDS011;11936;50.820;4.336;2022-12-18T15:33:44;33.13;;;18.15;;
23519;SDS011;11936;50.820;4.336;2022-12-18T15:36:17;31.75;;;16.25;;
23519;SDS011;11936;50.820;4.336;2022-12-18T15:38:47;37.78;;;18.15;;
23519;SDS011;11936;50.820;4.336;2022-12-18T15:41:15;33.28;;;18.33;;
23519;SDS011;11936;50.820;4.336;2022-12-18T15:43:42;35.30;;;17.75;;
23519;SDS011;11936;50.820;4.336;2022-12-18T15:48:39;37.35;;;19.75;;
23519;SDS011;11936;50.820;4.336;2022-12-18T15:51:16;32.60;;;18.50;;
23519;SDS011;11936;50.820;4.336;2022-12-18T15:53:42;38.17;;;18.92;;
23519;SDS011;11936;50.820;4.336;2022-12-18T15:56:10;32.22;;;18.67;;
23519;SDS011;11936;50.820;4.336;2022-12-18T15:58:55;34.90;;;18.50;;
23519;SDS011;11936;50.820;4.336;2022-12-18T16:01:22;32.60;;;18.17;;
23519;SDS011;11936;50.820;4.336;2022-12-18T16:03:50;34.42;;;18.13;;
23519;SDS011;11936;50.820;4.336;2022-12-18T16:06:15;31.98;;;18.60;;
23519;SDS011;11936;50.820;4.336;2022-12-18T16:08:41;33.35;;;18.25;;
23519;SDS011;11936;50.820;4.336;2022-12-18T16:11:11;39.03;;;18.85;;
23519;SDS011;11936;50.820;4.336;2022-12-18T16:13:44;37.83;;;19.25;;
23519;SDS011;11936;50.820;4.336;2022-12-18T16:16:10;31.65;;;18.45;;
23519;SDS011;11936;50.820;4.336;2022-12-18T16:18:35;36.78;;;18.70;;
23519;SDS011;11936;50.820;4.336;2022-12-18T16:21:01;40.58;;;19.00;;
23519;SDS011;11936;50.820;4.336;2022-12-18T16:23:26;35.63;;;18.67;;
23519;SDS011;11936;50.820;4.336;2022-12-18T16:25:53;32.85;;;17.73;;
23519;SDS011;11936;50.820;4.336;2022-12-18T16:28:19;32.10;;;17.92;;
23519;SDS011;11936;50.820;4.336;2022-12-18T16:30:45;31.70;;;17.65;;
23519;SDS011;11936;50.820;4.336;2022-12-18T16:33:14;34.58;;;17.90;;
23519;SDS011;11936;50.820;4.336;2022-12-18T16:35:40;30.45;;;16.75;;
23519;SDS011;11936;50.820;4.336;2022-12-18T16:38:05;31.95;;;17.98;;
23519;SDS011;11936;50.820;4.336;2022-12-18T16:40:31;30.92;;;16.90;;
23519;SDS011;11936;50.820;4.336;2022-12-18T16:42:57;31.92;;;17.45;;
23519;SDS011;11936;50.820;4.336;2022-12-18T16:45:23;34.08;;;17.90;;
23519;SDS011;11936;50.820;4.336;2022-12-18T16:47:57;34.72;;;17.83;;
23519;SDS011;11936;50.820;4.336;2022-12-18T16:50:23;32.50;;;18.23;;
23519;SDS011;11936;50.820;4.336;2022-12-18T16:52:49;32.35;;;17.90;;
23519;SDS011;11936;50.820;4.336;2022-12-18T16:55:14;30.25;;;16.77;;
23519;SDS011;11936;50.820;4.336;2022-12-18T16:57:40;28.80;;;16.88;;
23519;SDS011;11936;50.820;4.336;2022-12-18T17:00:06;31.27;;;17.05;;
23519;SDS011;11936;50.820;4.336;2022-12-18T17:02:32;35.42;;;18.02;;
23519;SDS011;11936;50.820;4.336;2022-12-18T17:04:58;29.50;;;16.73;;